createdAt,value
2022-08-29T00:00:02.248Z,99093.84
2022-08-29T00:03:08.948Z,99088.47
2022-08-29T00:06:11.386Z,99088.44
2022-08-29T00:09:13.683Z,99085.44
2022-08-29T00:12:16.072Z,99078.69
2022-08-29T00:15:19.751Z,99081.13
2022-08-29T00:18:21.974Z,99086.78
2022-08-29T00:21:24.488Z,99090.53
2022-08-29T00:24:27.476Z,99093.22
2022-08-29T00:27:29.775Z,99092.66
2022-08-29T00:30:32.628Z,99094.25
2022-08-29T00:33:34.827Z,99092.66
2022-08-29T00:36:40.526Z,99093.78
2022-08-29T00:39:51.117Z,99098.34
2022-08-29T00:42:53.661Z,99090.00
2022-08-29T00:45:55.871Z,99098.88
2022-08-29T00:49:03.090Z,99094.25
2022-08-29T00:52:12.204Z,99099.09
2022-08-29T00:55:23.212Z,99091.81
2022-08-29T00:58:32.580Z,99087.50
2022-08-29T01:01:35.225Z,99089.91
2022-08-29T01:04:39.409Z,99093.13
2022-08-29T01:07:42.766Z,99092.28
2022-08-29T01:11:04.184Z,99096.84
2022-08-29T01:14:06.607Z,99097.12
2022-08-29T01:17:09.607Z,99095.84
2022-08-29T01:20:20.931Z,99104.16
2022-08-29T01:23:40.529Z,99108.47
2022-08-29T01:26:45.015Z,99101.75
2022-08-29T01:29:47.609Z,99107.41
2022-08-29T01:32:49.808Z,99109.78
2022-08-29T01:35:52.513Z,99110.66
2022-08-29T01:38:54.735Z,99115.19
2022-08-29T01:41:58.103Z,99115.72
2022-08-29T01:45:00.884Z,99120.38
2022-08-29T01:48:05.268Z,99125.50
2022-08-29T01:51:11.178Z,99119.00
2022-08-29T01:54:14.438Z,99115.22
2022-08-29T01:57:17.370Z,99112.75
2022-08-29T02:00:19.702Z,99117.56
2022-08-29T02:03:22.296Z,99114.88
2022-08-29T02:06:25.572Z,99118.91
2022-08-29T02:09:28.605Z,99118.09
2022-08-29T02:12:31.641Z,99110.84
2022-08-29T02:15:34.022Z,99109.75
2022-08-29T02:18:36.354Z,99113.25
2022-08-29T02:21:38.613Z,99108.69
2022-08-29T02:24:42.143Z,99099.53
2022-08-29T02:27:45.254Z,99102.50
2022-08-29T02:30:52.159Z,99099.03
2022-08-29T02:33:59.106Z,99101.44
2022-08-29T02:37:02.357Z,99098.16
2022-08-29T02:40:05.291Z,99095.06
2022-08-29T02:43:08.165Z,99101.19
2022-08-29T02:46:15.234Z,99093.94
2022-08-29T02:49:17.618Z,99096.31
2022-08-29T02:52:20.632Z,99097.97
2022-08-29T02:55:24.134Z,99088.56
2022-08-29T02:58:26.814Z,99094.78
2022-08-29T03:01:31.273Z,99094.03
2022-08-29T03:04:34.470Z,99095.34
2022-08-29T03:07:36.837Z,99099.72
2022-08-29T03:10:39.170Z,99101.13
2022-08-29T03:13:41.743Z,99098.97
2022-08-29T03:16:43.971Z,99110.00
2022-08-29T03:19:46.195Z,99110.16
2022-08-29T03:22:49.228Z,99110.13
2022-08-29T03:25:51.547Z,99112.84
2022-08-29T03:28:54.241Z,99116.87
2022-08-29T03:31:59.808Z,99115.78
2022-08-29T03:35:02.085Z,99118.47
2022-08-29T03:38:04.358Z,99129.50
2022-08-29T03:41:07.443Z,99126.78
2022-08-29T03:44:09.931Z,99138.63
2022-08-29T03:47:12.129Z,99143.19
2022-08-29T03:50:15.985Z,99145.91
2022-08-29T03:53:18.708Z,99145.91
2022-08-29T03:56:22.287Z,99151.00
2022-08-29T03:59:25.062Z,99159.09
2022-08-29T04:02:27.651Z,99169.34
2022-08-29T04:05:30.224Z,99171.00
2022-08-29T04:08:32.464Z,99176.94
2022-08-29T04:11:34.672Z,99182.56
2022-08-29T04:14:37.666Z,99174.34
2022-08-29T04:17:45.603Z,99188.62
2022-08-29T04:21:02.045Z,99193.28
2022-08-29T04:24:04.293Z,99186.47
2022-08-29T04:27:06.473Z,99190.69
2022-08-29T04:30:15.219Z,99188.34
2022-08-29T04:33:22.316Z,99189.59
2022-08-29T04:36:26.097Z,99187.75
2022-08-29T04:39:28.457Z,99189.28
2022-08-29T04:42:31.269Z,99188.41
2022-08-29T04:45:33.664Z,99197.66
2022-08-29T04:48:35.855Z,99196.72
2022-08-29T04:51:38.151Z,99189.19
2022-08-29T04:54:40.418Z,99189.16
2022-08-29T04:57:42.814Z,99192.59
2022-08-29T05:00:45.768Z,99193.13
2022-08-29T05:03:49.057Z,99196.97
2022-08-29T05:06:51.278Z,99205.38
2022-08-29T05:10:17.399Z,99208.44
2022-08-29T05:13:19.677Z,99209.31
2022-08-29T05:16:21.917Z,99212.28
2022-08-29T05:19:24.158Z,99211.47
2022-08-29T05:22:26.923Z,99211.53
2022-08-29T05:25:29.186Z,99209.84
2022-08-29T05:28:34.034Z,99213.94
2022-08-29T05:31:38.096Z,99204.44
2022-08-29T05:34:41.844Z,99198.75
2022-08-29T05:37:44.105Z,99204.91
2022-08-29T05:40:46.432Z,99209.66
2022-08-29T05:43:48.643Z,99213.31
2022-08-29T05:46:50.917Z,99215.78
2022-08-29T05:49:53.151Z,99211.16
2022-08-29T05:52:55.340Z,99218.09
2022-08-29T05:55:57.654Z,99218.38
2022-08-29T05:58:59.964Z,99220.47
2022-08-29T06:02:02.575Z,99223.41
2022-08-29T06:05:05.008Z,99224.78
2022-08-29T06:08:08.213Z,99227.53
2022-08-29T06:11:24.807Z,99222.87
2022-08-29T06:14:27.231Z,99230.38
2022-08-29T06:17:29.754Z,99227.50
2022-08-29T06:20:32.021Z,99232.38
2022-08-29T06:23:35.136Z,99231.56
2022-08-29T06:26:37.557Z,99232.69
2022-08-29T06:29:43.724Z,99241.44
2022-08-29T06:32:46.166Z,99243.09
2022-08-29T06:35:48.413Z,99253.13
2022-08-29T06:38:50.604Z,99248.78
2022-08-29T06:41:52.845Z,99261.56
2022-08-29T06:44:55.103Z,99265.66
2022-08-29T06:47:57.391Z,99272.38
2022-08-29T06:51:02.903Z,99272.91
2022-08-29T06:54:07.216Z,99270.97
2022-08-29T06:57:09.560Z,99279.97
2022-08-29T07:00:22.078Z,99271.28
2022-08-29T07:03:25.485Z,99275.41
2022-08-29T07:06:28.454Z,99275.31
2022-08-29T07:09:32.347Z,99281.16
2022-08-29T07:12:34.923Z,99283.28
2022-08-29T07:15:37.246Z,99282.69
2022-08-29T07:18:39.507Z,99283.28
2022-08-29T07:21:41.848Z,99290.84
2022-08-29T07:24:44.230Z,99287.91
2022-08-29T07:27:48.253Z,99283.00
2022-08-29T07:30:55.604Z,99285.50
2022-08-29T07:34:02.731Z,99280.78
2022-08-29T07:37:06.187Z,99284.44
2022-08-29T07:40:19.312Z,99288.69
2022-08-29T07:43:24.988Z,99288.47
2022-08-29T07:46:29.689Z,99295.06
2022-08-29T07:49:41.003Z,99296.31
2022-08-29T07:52:43.952Z,99294.94
2022-08-29T07:55:46.557Z,99295.84
2022-08-29T07:58:48.972Z,99290.38
2022-08-29T08:01:51.249Z,99289.88
2022-08-29T08:04:53.441Z,99280.94
2022-08-29T08:07:56.304Z,99283.94
2022-08-29T08:10:58.586Z,99295.72
2022-08-29T08:14:01.054Z,99298.69
2022-08-29T08:17:03.816Z,99298.06
2022-08-29T08:20:09.598Z,99301.28
2022-08-29T08:23:14.837Z,99298.72
2022-08-29T08:26:17.432Z,99293.28
2022-08-29T08:29:19.702Z,99304.53
2022-08-29T08:32:22.003Z,99306.44
2022-08-29T08:35:24.549Z,99304.72
2022-08-29T08:38:27.313Z,99308.63
2022-08-29T08:41:42.146Z,99305.84
2022-08-29T08:45:06.493Z,99308.97
2022-08-29T08:48:14.381Z,99306.03
2022-08-29T08:51:22.938Z,99321.75
2022-08-29T08:54:27.802Z,99316.41
2022-08-29T08:57:37.717Z,99309.09
2022-08-29T09:00:53.125Z,99317.00
2022-08-29T09:04:27.210Z,99315.81
2022-08-29T09:07:48.153Z,99309.97
2022-08-29T09:10:58.889Z,99307.81
2022-08-29T09:14:03.775Z,99310.94
2022-08-29T09:17:08.483Z,99306.63
2022-08-29T09:20:15.321Z,99308.56
2022-08-29T09:23:28.403Z,99311.88
2022-08-29T09:26:30.831Z,99302.19
2022-08-29T09:29:33.037Z,99301.63
2022-08-29T09:33:11.502Z,99305.72
2022-08-29T09:36:15.903Z,99301.09
2022-08-29T09:39:24.990Z,99307.13
2022-08-29T09:42:36.178Z,99303.22
2022-08-29T09:45:38.455Z,99298.97
2022-08-29T09:48:49.486Z,99297.84
2022-08-29T09:51:51.679Z,99301.31
2022-08-29T09:54:53.978Z,99310.59
2022-08-29T09:58:06.704Z,99304.78
2022-08-29T10:01:17.953Z,99307.66
2022-08-29T10:04:37.366Z,99312.06
2022-08-29T10:07:52.311Z,99307.94
2022-08-29T10:10:58.139Z,99306.53
2022-08-29T10:14:31.183Z,99307.53
2022-08-29T10:18:05.421Z,99314.31
2022-08-29T10:21:21.449Z,99302.59
2022-08-29T10:24:49.107Z,99313.91
2022-08-29T10:28:14.833Z,99314.37
2022-08-29T10:31:27.784Z,99310.06
2022-08-29T10:34:44.648Z,99307.03
2022-08-29T10:37:57.590Z,99319.03
2022-08-29T10:41:36.858Z,99312.38
2022-08-29T10:45:06.769Z,99316.41
2022-08-29T10:48:21.967Z,99311.53
2022-08-29T10:52:03.614Z,99311.34
2022-08-29T10:55:20.945Z,99305.19
2022-08-29T10:58:44.588Z,99306.72
2022-08-29T11:02:19.948Z,99303.50
2022-08-29T11:05:26.399Z,99304.38
2022-08-29T11:08:34.481Z,99297.72
2022-08-29T11:11:38.218Z,99287.88
2022-08-29T11:14:44.469Z,99279.25
2022-08-29T11:17:52.342Z,99289.97
2022-08-29T11:21:02.162Z,99283.84
2022-08-29T11:24:05.569Z,99283.19
2022-08-29T11:27:10.261Z,99284.63
2022-08-29T11:30:40.335Z,99279.56
2022-08-29T11:33:45.938Z,99275.25
2022-08-29T11:37:07.267Z,99278.56
2022-08-29T11:40:15.421Z,99279.31
2022-08-29T11:43:20.958Z,99270.03
2022-08-29T11:46:42.696Z,99271.28
2022-08-29T11:49:51.501Z,99274.84
2022-08-29T11:53:33.851Z,99265.22
2022-08-29T11:56:36.278Z,99268.41
2022-08-29T11:59:54.629Z,99276.53
2022-08-29T12:02:57.057Z,99264.41
2022-08-29T12:06:03.252Z,99265.69
2022-08-29T12:09:19.414Z,99266.53
2022-08-29T12:12:47.461Z,99268.28
2022-08-29T12:15:53.498Z,99270.72
2022-08-29T12:18:57.536Z,99264.22
2022-08-29T12:22:01.096Z,99258.12
2022-08-29T12:25:27.985Z,99255.22
2022-08-29T12:28:37.081Z,99248.41
2022-08-29T12:31:44.376Z,99246.28
2022-08-29T12:35:26.222Z,99234.81
2022-08-29T12:38:53.981Z,99225.00
2022-08-29T12:42:02.053Z,99219.75
2022-08-29T12:45:13.475Z,99222.59
2022-08-29T12:48:25.098Z,99220.03
2022-08-29T12:51:56.278Z,99221.16
2022-08-29T12:55:03.133Z,99216.00
2022-08-29T12:58:06.969Z,99213.59
2022-08-29T13:01:31.959Z,99218.59
2022-08-29T13:04:36.444Z,99214.38
2022-08-29T13:07:38.629Z,99202.41
2022-08-29T13:10:52.502Z,99213.03
2022-08-29T13:14:23.804Z,99209.28
2022-08-29T13:17:38.121Z,99205.31
2022-08-29T13:20:40.394Z,99201.75
2022-08-29T13:23:47.228Z,99195.34
2022-08-29T13:27:04.969Z,99196.66
2022-08-29T13:30:08.838Z,99188.22
2022-08-29T13:33:27.131Z,99180.69
2022-08-29T13:36:59.911Z,99180.34
2022-08-29T13:40:33.154Z,99186.72
2022-08-29T13:43:46.096Z,99192.37
2022-08-29T13:46:51.289Z,99186.41
2022-08-29T13:50:01.261Z,99174.53
2022-08-29T13:53:03.509Z,99188.97
2022-08-29T13:56:19.990Z,99189.78
2022-08-29T13:59:28.005Z,99188.56
2022-08-29T14:02:30.468Z,99186.88
2022-08-29T14:05:33.080Z,99185.06
2022-08-29T14:08:35.383Z,99193.50
2022-08-29T14:11:37.561Z,99188.31
2022-08-29T14:14:40.457Z,99190.12
2022-08-29T14:17:42.918Z,99190.28
2022-08-29T14:20:45.173Z,99188.84
2022-08-29T14:23:48.565Z,99185.44
2022-08-29T14:26:57.555Z,99183.91
2022-08-29T14:30:06.778Z,99185.31
2022-08-29T14:33:09.183Z,99176.44
2022-08-29T14:36:11.406Z,99176.69
2022-08-29T14:39:14.158Z,99176.38
2022-08-29T14:42:16.499Z,99175.88
2022-08-29T14:45:18.787Z,99175.25
2022-08-29T14:48:21.046Z,99184.66
2022-08-29T14:51:23.330Z,99192.28
2022-08-29T14:54:25.499Z,99187.41
2022-08-29T14:57:27.953Z,99184.75
2022-08-29T15:00:31.852Z,99180.50
2022-08-29T15:03:34.039Z,99180.59
2022-08-29T15:06:37.102Z,99174.47
2022-08-29T15:09:40.280Z,99174.75
2022-08-29T15:12:42.801Z,99175.44
2022-08-29T15:15:45.251Z,99169.31
2022-08-29T15:22:10.509Z,99176.22
2022-08-29T15:25:12.778Z,99173.25
2022-08-29T15:28:15.082Z,99188.34
2022-08-29T15:31:17.518Z,99188.62
2022-08-29T15:34:19.788Z,99194.16
2022-08-29T15:37:22.228Z,99206.94
2022-08-29T15:40:24.698Z,99188.38
2022-08-29T15:43:27.890Z,99189.53
2022-08-29T15:46:30.832Z,99194.56
2022-08-29T15:49:33.165Z,99201.34
2022-08-29T15:52:36.568Z,99212.56
2022-08-29T15:55:42.510Z,99205.69
2022-08-29T15:58:48.302Z,99195.63
2022-08-29T16:01:53.609Z,99197.91
2022-08-29T16:04:57.287Z,99198.97
2022-08-29T16:08:00.223Z,99207.63
2022-08-29T16:11:04.443Z,99204.03
2022-08-29T16:14:41.165Z,99205.16
2022-08-29T16:17:31.552Z,99208.84
2022-08-29T16:20:34.620Z,99212.06
2022-08-29T16:23:36.897Z,99216.03
2022-08-29T16:26:43.728Z,99217.06
2022-08-29T16:29:47.758Z,99222.66
2022-08-29T16:32:50.501Z,99225.09
2022-08-29T16:35:52.704Z,99226.06
2022-08-29T16:38:55.698Z,99226.75
2022-08-29T16:41:58.000Z,99227.81
2022-08-29T16:45:00.303Z,99228.38
2022-08-29T16:48:02.906Z,99241.75
2022-08-29T16:51:07.979Z,99238.87
2022-08-29T16:54:12.451Z,99252.00
2022-08-29T16:57:14.672Z,99260.81
2022-08-29T17:00:16.951Z,99258.38
2022-08-29T17:03:20.337Z,99264.31
2022-08-29T17:06:23.364Z,99250.75
2022-08-29T17:09:25.814Z,99250.53
2022-08-29T17:12:29.254Z,99256.75
2022-08-29T17:15:31.454Z,99265.31
2022-08-29T17:18:34.290Z,99256.97
2022-08-29T17:21:36.678Z,99253.03
2022-08-29T17:24:38.917Z,99244.16
2022-08-29T17:27:42.914Z,99258.03
2022-08-29T17:30:55.081Z,99259.69
2022-08-29T17:33:57.429Z,99259.78
2022-08-29T17:37:00.452Z,99267.06
2022-08-29T17:40:04.212Z,99268.78
2022-08-29T17:43:06.963Z,99269.06
2022-08-29T17:46:09.916Z,99280.19
2022-08-29T17:49:12.427Z,99277.25
2022-08-29T17:52:14.628Z,99288.09
2022-08-29T17:55:17.113Z,99293.25
2022-08-29T17:58:21.183Z,99301.13
2022-08-29T18:01:23.747Z,99298.41
2022-08-29T18:04:26.925Z,99302.78
2022-08-29T18:07:29.795Z,99305.53
2022-08-29T18:10:33.649Z,99310.69
2022-08-29T18:13:35.840Z,99306.28
2022-08-29T18:16:38.206Z,99310.13
2022-08-29T18:19:41.109Z,99317.47
2022-08-29T18:22:43.379Z,99317.50
2022-08-29T18:25:45.646Z,99315.66
2022-08-29T18:28:48.159Z,99315.59
2022-08-29T18:31:51.955Z,99322.09
2022-08-29T18:34:58.799Z,99323.47
2022-08-29T18:38:02.917Z,99328.03
2022-08-29T18:41:06.488Z,99316.41
2022-08-29T18:44:10.128Z,99323.66
2022-08-29T18:47:12.376Z,99326.12
2022-08-29T18:50:33.209Z,99343.97
2022-08-29T18:53:35.477Z,99343.69
2022-08-29T18:56:38.318Z,99341.06
2022-08-29T18:59:40.994Z,99344.03
2022-08-29T19:02:43.539Z,99357.25
2022-08-29T19:05:49.524Z,99347.03
2022-08-29T19:08:52.764Z,99352.69
2022-08-29T19:11:55.925Z,99351.38
2022-08-29T19:14:58.160Z,99353.00
2022-08-29T19:18:00.607Z,99353.53
2022-08-29T19:21:02.970Z,99352.19
2022-08-29T19:24:05.299Z,99356.78
2022-08-29T19:27:21.718Z,99356.78
2022-08-29T19:30:29.820Z,99355.44
2022-08-29T19:33:34.420Z,99364.34
2022-08-29T19:36:36.919Z,99366.75
2022-08-29T19:39:39.158Z,99370.28
2022-08-29T19:42:42.212Z,99360.28
2022-08-29T19:45:44.644Z,99368.13
2022-08-29T19:48:51.608Z,99371.91
2022-08-29T19:51:54.829Z,99371.59
2022-08-29T19:55:00.246Z,99378.34
2022-08-29T19:58:02.536Z,99377.31
2022-08-29T20:01:08.824Z,99384.31
2022-08-29T20:04:11.724Z,99374.56
2022-08-29T20:07:14.687Z,99383.97
2022-08-29T20:10:23.326Z,99380.25
2022-08-29T20:13:28.186Z,99378.94
2022-08-29T20:16:36.100Z,99385.91
2022-08-29T20:19:39.517Z,99385.94
2022-08-29T20:22:41.763Z,99376.75
2022-08-29T20:25:45.920Z,99372.16
2022-08-29T20:28:49.259Z,99386.47
2022-08-29T20:31:51.490Z,99381.91
2022-08-29T20:34:53.784Z,99385.41
2022-08-29T20:37:56.014Z,99380.28
2022-08-29T20:40:58.247Z,99378.06
2022-08-29T20:44:06.889Z,99374.03
2022-08-29T20:47:20.396Z,99377.81
2022-08-29T20:50:22.715Z,99384.28
2022-08-29T20:53:32.554Z,99385.38
2022-08-29T20:56:35.192Z,99390.53
2022-08-29T20:59:39.499Z,99395.94
2022-08-29T21:03:00.262Z,99395.94
2022-08-29T21:06:03.709Z,99392.97
2022-08-29T21:09:06.272Z,99395.12
2022-08-29T21:12:08.730Z,99396.16
2022-08-29T21:15:11.794Z,99391.56
2022-08-29T21:18:16.103Z,99391.25
2022-08-29T21:21:24.836Z,99388.56
2022-08-29T21:24:29.505Z,99383.69
2022-08-29T21:27:31.844Z,99382.63
2022-08-29T21:30:35.677Z,99381.00
2022-08-29T21:33:39.608Z,99379.38
2022-08-29T21:36:41.838Z,99381.47
2022-08-29T21:39:46.568Z,99380.47
2022-08-29T21:42:48.917Z,99387.12
2022-08-29T21:45:51.951Z,99385.16
2022-08-29T21:48:57.032Z,99385.66
2022-08-29T21:51:59.843Z,99380.56
2022-08-29T21:55:02.104Z,99383.78
2022-08-29T21:58:04.433Z,99381.47
2022-08-29T22:01:09.334Z,99379.38
2022-08-29T22:04:19.220Z,99381.53
2022-08-29T22:07:31.296Z,99384.72
2022-08-29T22:10:35.838Z,99395.47
2022-08-29T22:13:38.155Z,99381.19
2022-08-29T22:16:41.025Z,99381.66
2022-08-29T22:19:43.386Z,99378.41
2022-08-29T22:22:46.334Z,99380.81
2022-08-29T22:25:48.530Z,99381.53
2022-08-29T22:28:50.855Z,99382.63
2022-08-29T22:31:55.246Z,99385.53
2022-08-29T22:34:57.422Z,99398.66
2022-08-29T22:37:59.616Z,99385.53
2022-08-29T22:41:01.896Z,99388.16
2022-08-29T22:47:27.402Z,99394.16
2022-08-29T22:50:29.621Z,99398.75
2022-08-29T22:53:31.857Z,99413.34
2022-08-29T22:56:36.328Z,99408.31
2022-08-29T22:59:38.941Z,99417.50
2022-08-29T23:02:41.572Z,99423.19
2022-08-29T23:05:43.832Z,99424.00
2022-08-29T23:08:46.065Z,99427.75
2022-08-29T23:11:48.535Z,99424.50
2022-08-29T23:14:51.397Z,99426.91
2022-08-29T23:17:53.662Z,99424.97
2022-08-29T23:20:55.866Z,99421.22
2022-08-29T23:23:58.821Z,99421.47
2022-08-29T23:27:01.112Z,99432.56
2022-08-29T23:30:05.612Z,99440.03
2022-08-29T23:33:11.336Z,99433.00
2022-08-29T23:36:13.536Z,99432.47
2022-08-29T23:39:15.724Z,99438.41
2022-08-29T23:42:18.135Z,99449.28
2022-08-29T23:45:20.482Z,99439.19
2022-08-29T23:48:25.963Z,99430.91
2022-08-29T23:51:28.287Z,99439.84
2022-08-29T23:54:31.550Z,99439.63
2022-08-29T23:57:34.855Z,99433.97
